sensor_id;sensor_type;location;lat;lon;timestamp;P1;durP1;ratioP1;P2;durP2;ratioP2
20114;SDS011;10218;42.874;25.320;2022-07-29T00:01:53;10.63;;;7.97;;
20114;SDS011;10218;42.874;25.320;2022-07-29T00:04:20;12.63;;;7.60;;
20114;SDS011;10218;42.874;25.320;2022-07-29T00:06:47;13.83;;;8.13;;
20114;SDS011;10218;42.874;25.320;2022-07-29T00:09:15;10.77;;;7.47;;
20114;SDS011;10218;42.874;25.320;2022-07-29T00:11:42;9.30;;;7.60;;
20114;SDS011;10218;42.874;25.320;2022-07-29T00:14:09;13.83;;;7.43;;
20114;SDS011;10218;42.874;25.320;2022-07-29T00:16:38;12.70;;;7.77;;
20114;SDS011;10218;42.874;25.320;2022-07-29T00:19:06;12.30;;;7.80;;
20114;SDS011;10218;42.874;25.320;2022-07-29T00:21:33;11.33;;;7.40;;
20114;SDS011;10218;42.874;25.320;2022-07-29T00:24:00;10.53;;;7.50;;
20114;SDS011;10218;42.874;25.320;2022-07-29T00:26:29;13.20;;;7.83;;
20114;SDS011;10218;42.874;25.320;2022-07-29T00:28:59;11.37;;;7.73;;
20114;SDS011;10218;42.874;25.320;2022-07-29T00:31:48;9.67;;;8.37;;
20114;SDS011;10218;42.874;25.320;2022-07-29T00:34:16;9.97;;;8.50;;
20114;SDS011;10218;42.874;25.320;2022-07-29T00:37:03;15.53;;;8.60;;
20114;SDS011;10218;42.874;25.320;2022-07-29T00:39:30;12.80;;;8.50;;
20114;SDS011;10218;42.874;25.320;2022-07-29T00:41:57;15.83;;;8.77;;
20114;SDS011;10218;42.874;25.320;2022-07-29T00:44:26;11.07;;;8.60;;
20114;SDS011;10218;42.874;25.320;2022-07-29T00:46:53;11.03;;;8.47;;
20114;SDS011;10218;42.874;25.320;2022-07-29T00:49:21;9.60;;;8.03;;
20114;SDS011;10218;42.874;25.320;2022-07-29T00:51:51;13.40;;;8.57;;
20114;SDS011;10218;42.874;25.320;2022-07-29T00:54:18;14.80;;;8.97;;
20114;SDS011;10218;42.874;25.320;2022-07-29T00:56:45;12.60;;;8.70;;
20114;SDS011;10218;42.874;25.320;2022-07-29T00:59:15;14.00;;;9.43;;
20114;SDS011;10218;42.874;25.320;2022-07-29T01:01:42;15.07;;;9.70;;
20114;SDS011;10218;42.874;25.320;2022-07-29T01:04:10;15.93;;;8.87;;
20114;SDS011;10218;42.874;25.320;2022-07-29T01:06:38;9.80;;;8.23;;
20114;SDS011;10218;42.874;25.320;2022-07-29T01:09:05;13.63;;;9.07;;
20114;SDS011;10218;42.874;25.320;2022-07-29T01:11:33;12.30;;;8.87;;
20114;SDS011;10218;42.874;25.320;2022-07-29T01:14:05;11.17;;;8.87;;
20114;SDS011;10218;42.874;25.320;2022-07-29T01:16:36;12.90;;;8.53;;
20114;SDS011;10218;42.874;25.320;2022-07-29T01:31:12;14.17;;;7.60;;
20114;SDS011;10218;42.874;25.320;2022-07-29T01:33:45;9.60;;;7.63;;
20114;SDS011;10218;42.874;25.320;2022-07-29T01:37:05;9.33;;;8.00;;
20114;SDS011;10218;42.874;25.320;2022-07-29T01:39:18;12.60;;;8.07;;
20114;SDS011;10218;42.874;25.320;2022-07-29T01:41:57;13.23;;;9.40;;
20114;SDS011;10218;42.874;25.320;2022-07-29T01:44:41;12.73;;;8.97;;
20114;SDS011;10218;42.874;25.320;2022-07-29T01:47:19;12.87;;;8.97;;
20114;SDS011;10218;42.874;25.320;2022-07-29T01:49:52;10.70;;;8.83;;
20114;SDS011;10218;42.874;25.320;2022-07-29T01:52:28;11.77;;;8.80;;
20114;SDS011;10218;42.874;25.320;2022-07-29T01:55:06;15.27;;;9.47;;
20114;SDS011;10218;42.874;25.320;2022-07-29T01:57:38;13.27;;;9.00;;
20114;SDS011;10218;42.874;25.320;2022-07-29T02:00:10;13.60;;;9.00;;
20114;SDS011;10218;42.874;25.320;2022-07-29T02:02:39;11.63;;;8.30;;
20114;SDS011;10218;42.874;25.320;2022-07-29T02:05:10;12.10;;;9.07;;
20114;SDS011;10218;42.874;25.320;2022-07-29T02:07:40;11.13;;;8.73;;
20114;SDS011;10218;42.874;25.320;2022-07-29T02:10:10;11.43;;;9.23;;
20114;SDS011;10218;42.874;25.320;2022-07-29T02:12:39;12.17;;;9.17;;
20114;SDS011;10218;42.874;25.320;2022-07-29T02:15:09;15.60;;;8.87;;
20114;SDS011;10218;42.874;25.320;2022-07-29T02:17:40;13.33;;;8.47;;
20114;SDS011;10218;42.874;25.320;2022-07-29T02:20:10;10.87;;;8.00;;
20114;SDS011;10218;42.874;25.320;2022-07-29T02:22:39;13.07;;;8.00;;
20114;SDS011;10218;42.874;25.320;2022-07-29T02:25:10;15.43;;;8.03;;
20114;SDS011;10218;42.874;25.320;2022-07-29T02:27:38;9.73;;;7.40;;
20114;SDS011;10218;42.874;25.320;2022-07-29T02:30:07;13.17;;;7.53;;
20114;SDS011;10218;42.874;25.320;2022-07-29T02:32:37;11.53;;;7.37;;
20114;SDS011;10218;42.874;25.320;2022-07-29T02:35:08;10.00;;;7.67;;
20114;SDS011;10218;42.874;25.320;2022-07-29T02:37:37;10.57;;;7.33;;
20114;SDS011;10218;42.874;25.320;2022-07-29T02:40:04;9.17;;;7.37;;
20114;SDS011;10218;42.874;25.320;2022-07-29T02:42:38;9.70;;;7.40;;
20114;SDS011;10218;42.874;25.320;2022-07-29T02:45:08;9.87;;;7.00;;
20114;SDS011;10218;42.874;25.320;2022-07-29T02:47:41;12.73;;;7.60;;
20114;SDS011;10218;42.874;25.320;2022-07-29T02:50:26;10.40;;;7.37;;
20114;SDS011;10218;42.874;25.320;2022-07-29T02:53:20;10.17;;;7.13;;
20114;SDS011;10218;42.874;25.320;2022-07-29T02:55:55;10.20;;;6.83;;
20114;SDS011;10218;42.874;25.320;2022-07-29T02:58:27;10.87;;;7.20;;
20114;SDS011;10218;42.874;25.320;2022-07-29T03:00:58;13.97;;;8.07;;
20114;SDS011;10218;42.874;25.320;2022-07-29T03:03:34;13.47;;;7.30;;
20114;SDS011;10218;42.874;25.320;2022-07-29T03:06:05;10.63;;;7.50;;
20114;SDS011;10218;42.874;25.320;2022-07-29T03:08:34;12.00;;;8.67;;
20114;SDS011;10218;42.874;25.320;2022-07-29T03:11:02;12.10;;;8.13;;
20114;SDS011;10218;42.874;25.320;2022-07-29T03:13:33;12.00;;;8.37;;
20114;SDS011;10218;42.874;25.320;2022-07-29T03:16:02;9.50;;;7.77;;
20114;SDS011;10218;42.874;25.320;2022-07-29T03:18:31;12.10;;;8.20;;
20114;SDS011;10218;42.874;25.320;2022-07-29T03:21:01;14.13;;;8.43;;
20114;SDS011;10218;42.874;25.320;2022-07-29T03:23:30;13.63;;;8.90;;
20114;SDS011;10218;42.874;25.320;2022-07-29T03:25:57;11.97;;;8.47;;
20114;SDS011;10218;42.874;25.320;2022-07-29T03:28:24;11.97;;;8.10;;
20114;SDS011;10218;42.874;25.320;2022-07-29T03:30:53;10.80;;;8.90;;
20114;SDS011;10218;42.874;25.320;2022-07-29T03:33:21;11.57;;;7.73;;
20114;SDS011;10218;42.874;25.320;2022-07-29T03:35:49;12.67;;;7.60;;
20114;SDS011;10218;42.874;25.320;2022-07-29T03:38:16;13.87;;;7.37;;
20114;SDS011;10218;42.874;25.320;2022-07-29T03:41:00;10.30;;;7.83;;
20114;SDS011;10218;42.874;25.320;2022-07-29T03:43:33;11.37;;;7.10;;
20114;SDS011;10218;42.874;25.320;2022-07-29T03:46:04;9.70;;;7.80;;
20114;SDS011;10218;42.874;25.320;2022-07-29T03:48:34;8.93;;;7.40;;
20114;SDS011;10218;42.874;25.320;2022-07-29T03:51:06;9.70;;;6.67;;
20114;SDS011;10218;42.874;25.320;2022-07-29T03:53:33;9.47;;;7.27;;
20114;SDS011;10218;42.874;25.320;2022-07-29T03:56:04;10.83;;;7.43;;
20114;SDS011;10218;42.874;25.320;2022-07-29T03:58:34;8.93;;;7.17;;
20114;SDS011;10218;42.874;25.320;2022-07-29T04:01:03;9.50;;;7.37;;
20114;SDS011;10218;42.874;25.320;2022-07-29T04:03:32;9.97;;;7.23;;
20114;SDS011;10218;42.874;25.320;2022-07-29T04:06:03;13.03;;;7.70;;
20114;SDS011;10218;42.874;25.320;2022-07-29T04:08:36;9.83;;;7.40;;
20114;SDS011;10218;42.874;25.320;2022-07-29T04:11:04;12.27;;;7.87;;
20114;SDS011;10218;42.874;25.320;2022-07-29T04:13:33;8.63;;;7.13;;
20114;SDS011;10218;42.874;25.320;2022-07-29T04:16:01;10.63;;;7.00;;
20114;SDS011;10218;42.874;25.320;2022-07-29T04:18:30;13.07;;;7.20;;
20114;SDS011;10218;42.874;25.320;2022-07-29T04:20:59;10.93;;;6.63;;
20114;SDS011;10218;42.874;25.320;2022-07-29T04:23:29;10.63;;;7.73;;
20114;SDS011;10218;42.874;25.320;2022-07-29T04:25:59;10.77;;;7.57;;
20114;SDS011;10218;42.874;25.320;2022-07-29T04:28:28;12.63;;;7.40;;
20114;SDS011;10218;42.874;25.320;2022-07-29T04:30:56;10.03;;;7.53;;
20114;SDS011;10218;42.874;25.320;2022-07-29T04:33:24;11.80;;;7.90;;
20114;SDS011;10218;42.874;25.320;2022-07-29T04:35:51;9.10;;;7.30;;
20114;SDS011;10218;42.874;25.320;2022-07-29T04:38:18;9.40;;;7.13;;
20114;SDS011;10218;42.874;25.320;2022-07-29T04:40:45;10.27;;;7.17;;
20114;SDS011;10218;42.874;25.320;2022-07-29T04:43:14;9.07;;;7.20;;
20114;SDS011;10218;42.874;25.320;2022-07-29T04:45:42;11.20;;;6.80;;
20114;SDS011;10218;42.874;25.320;2022-07-29T04:48:10;9.37;;;6.27;;
20114;SDS011;10218;42.874;25.320;2022-07-29T04:50:38;8.07;;;6.20;;
20114;SDS011;10218;42.874;25.320;2022-07-29T04:53:06;10.40;;;6.27;;
20114;SDS011;10218;42.874;25.320;2022-07-29T04:55:34;10.03;;;6.07;;
20114;SDS011;10218;42.874;25.320;2022-07-29T04:58:02;6.53;;;5.83;;
20114;SDS011;10218;42.874;25.320;2022-07-29T05:00:29;13.27;;;5.87;;
20114;SDS011;10218;42.874;25.320;2022-07-29T05:02:56;11.43;;;6.13;;
20114;SDS011;10218;42.874;25.320;2022-07-29T05:05:25;8.00;;;6.30;;
20114;SDS011;10218;42.874;25.320;2022-07-29T05:07:52;7.97;;;5.90;;
20114;SDS011;10218;42.874;25.320;2022-07-29T05:10:19;10.30;;;5.83;;
20114;SDS011;10218;42.874;25.320;2022-07-29T05:12:47;7.60;;;5.90;;
20114;SDS011;10218;42.874;25.320;2022-07-29T05:15:15;10.57;;;6.03;;
20114;SDS011;10218;42.874;25.320;2022-07-29T05:17:42;7.00;;;5.80;;
20114;SDS011;10218;42.874;25.320;2022-07-29T05:20:09;11.90;;;6.03;;
20114;SDS011;10218;42.874;25.320;2022-07-29T05:22:37;9.87;;;5.87;;
20114;SDS011;10218;42.874;25.320;2022-07-29T05:25:04;6.90;;;5.37;;
20114;SDS011;10218;42.874;25.320;2022-07-29T05:27:35;11.63;;;6.33;;
20114;SDS011;10218;42.874;25.320;2022-07-29T05:30:03;7.80;;;6.00;;
20114;SDS011;10218;42.874;25.320;2022-07-29T05:32:31;7.03;;;5.30;;
20114;SDS011;10218;42.874;25.320;2022-07-29T05:34:58;8.90;;;5.00;;
20114;SDS011;10218;42.874;25.320;2022-07-29T05:37:27;10.43;;;6.17;;
20114;SDS011;10218;42.874;25.320;2022-07-29T05:39:54;7.00;;;5.50;;
20114;SDS011;10218;42.874;25.320;2022-07-29T05:42:24;9.50;;;6.10;;
20114;SDS011;10218;42.874;25.320;2022-07-29T05:44:51;9.00;;;6.43;;
20114;SDS011;10218;42.874;25.320;2022-07-29T05:47:19;8.47;;;5.97;;
20114;SDS011;10218;42.874;25.320;2022-07-29T05:49:47;8.17;;;5.37;;
20114;SDS011;10218;42.874;25.320;2022-07-29T05:52:15;11.70;;;6.00;;
20114;SDS011;10218;42.874;25.320;2022-07-29T05:54:42;7.67;;;5.60;;
20114;SDS011;10218;42.874;25.320;2022-07-29T05:57:16;8.63;;;5.33;;
20114;SDS011;10218;42.874;25.320;2022-07-29T05:59:48;7.97;;;5.30;;
20114;SDS011;10218;42.874;25.320;2022-07-29T06:02:16;8.47;;;5.73;;
20114;SDS011;10218;42.874;25.320;2022-07-29T06:04:44;12.77;;;6.37;;
20114;SDS011;10218;42.874;25.320;2022-07-29T06:07:11;11.80;;;5.80;;
20114;SDS011;10218;42.874;25.320;2022-07-29T06:09:38;10.33;;;6.13;;
20114;SDS011;10218;42.874;25.320;2022-07-29T06:12:06;7.43;;;5.90;;
20114;SDS011;10218;42.874;25.320;2022-07-29T06:14:33;6.73;;;5.43;;
20114;SDS011;10218;42.874;25.320;2022-07-29T06:17:01;8.83;;;5.87;;
20114;SDS011;10218;42.874;25.320;2022-07-29T06:19:29;13.27;;;8.03;;
20114;SDS011;10218;42.874;25.320;2022-07-29T06:21:56;8.07;;;5.10;;
20114;SDS011;10218;42.874;25.320;2022-07-29T06:24:23;7.73;;;5.13;;
20114;SDS011;10218;42.874;25.320;2022-07-29T06:26:51;10.63;;;5.20;;
20114;SDS011;10218;42.874;25.320;2022-07-29T06:29:18;5.60;;;4.50;;
20114;SDS011;10218;42.874;25.320;2022-07-29T06:31:45;9.33;;;5.23;;
20114;SDS011;10218;42.874;25.320;2022-07-29T06:34:12;10.27;;;5.57;;
20114;SDS011;10218;42.874;25.320;2022-07-29T06:36:39;6.47;;;4.70;;
20114;SDS011;10218;42.874;25.320;2022-07-29T06:39:07;7.00;;;5.30;;
20114;SDS011;10218;42.874;25.320;2022-07-29T06:41:34;8.60;;;5.90;;
20114;SDS011;10218;42.874;25.320;2022-07-29T06:44:04;8.93;;;4.90;;
20114;SDS011;10218;42.874;25.320;2022-07-29T06:46:31;10.50;;;5.40;;
20114;SDS011;10218;42.874;25.320;2022-07-29T06:48:59;6.60;;;5.50;;
20114;SDS011;10218;42.874;25.320;2022-07-29T06:51:28;6.30;;;5.40;;
20114;SDS011;10218;42.874;25.320;2022-07-29T06:53:55;8.93;;;5.90;;
20114;SDS011;10218;42.874;25.320;2022-07-29T06:56:24;6.60;;;5.33;;
20114;SDS011;10218;42.874;25.320;2022-07-29T06:58:51;9.43;;;5.80;;
20114;SDS011;10218;42.874;25.320;2022-07-29T07:01:18;6.67;;;5.70;;
20114;SDS011;10218;42.874;25.320;2022-07-29T07:03:46;7.00;;;6.10;;
20114;SDS011;10218;42.874;25.320;2022-07-29T07:06:13;6.53;;;5.60;;
20114;SDS011;10218;42.874;25.320;2022-07-29T07:08:40;8.87;;;6.13;;
20114;SDS011;10218;42.874;25.320;2022-07-29T07:11:08;6.43;;;5.10;;
20114;SDS011;10218;42.874;25.320;2022-07-29T07:13:35;5.43;;;4.30;;
20114;SDS011;10218;42.874;25.320;2022-07-29T07:16:02;7.87;;;3.90;;
20114;SDS011;10218;42.874;25.320;2022-07-29T07:18:31;5.10;;;4.30;;
20114;SDS011;10218;42.874;25.320;2022-07-29T07:20:58;5.30;;;3.63;;
20114;SDS011;10218;42.874;25.320;2022-07-29T07:23:25;7.30;;;3.90;;
20114;SDS011;10218;42.874;25.320;2022-07-29T07:25:52;7.93;;;3.90;;
20114;SDS011;10218;42.874;25.320;2022-07-29T07:28:19;3.50;;;3.20;;
20114;SDS011;10218;42.874;25.320;2022-07-29T07:30:47;4.33;;;3.17;;
20114;SDS011;10218;42.874;25.320;2022-07-29T07:33:14;4.37;;;3.40;;
20114;SDS011;10218;42.874;25.320;2022-07-29T07:35:42;4.53;;;3.03;;
20114;SDS011;10218;42.874;25.320;2022-07-29T07:38:09;3.80;;;3.30;;
20114;SDS011;10218;42.874;25.320;2022-07-29T07:40:36;3.43;;;3.13;;
20114;SDS011;10218;42.874;25.320;2022-07-29T07:43:03;5.60;;;3.30;;
20114;SDS011;10218;42.874;25.320;2022-07-29T07:45:30;4.83;;;3.07;;
20114;SDS011;10218;42.874;25.320;2022-07-29T07:47:59;4.60;;;3.10;;
20114;SDS011;10218;42.874;25.320;2022-07-29T07:50:26;4.67;;;2.87;;
20114;SDS011;10218;42.874;25.320;2022-07-29T07:52:54;6.63;;;3.00;;
20114;SDS011;10218;42.874;25.320;2022-07-29T07:55:26;3.83;;;3.20;;
20114;SDS011;10218;42.874;25.320;2022-07-29T07:57:53;4.57;;;2.80;;
20114;SDS011;10218;42.874;25.320;2022-07-29T08:00:21;3.63;;;3.10;;
20114;SDS011;10218;42.874;25.320;2022-07-29T08:02:49;3.27;;;2.93;;
20114;SDS011;10218;42.874;25.320;2022-07-29T08:05:16;4.60;;;3.70;;
20114;SDS011;10218;42.874;25.320;2022-07-29T08:07:44;4.37;;;3.27;;
20114;SDS011;10218;42.874;25.320;2022-07-29T08:10:16;3.80;;;3.00;;
20114;SDS011;10218;42.874;25.320;2022-07-29T08:13:08;4.27;;;3.50;;
20114;SDS011;10218;42.874;25.320;2022-07-29T08:15:39;4.97;;;3.10;;
20114;SDS011;10218;42.874;25.320;2022-07-29T08:18:07;3.60;;;3.30;;
20114;SDS011;10218;42.874;25.320;2022-07-29T08:20:35;5.77;;;3.60;;
20114;SDS011;10218;42.874;25.320;2022-07-29T08:23:06;4.97;;;3.90;;
20114;SDS011;10218;42.874;25.320;2022-07-29T08:25:35;6.00;;;4.10;;
20114;SDS011;10218;42.874;25.320;2022-07-29T08:28:05;4.47;;;3.50;;
20114;SDS011;10218;42.874;25.320;2022-07-29T08:30:32;3.53;;;3.23;;
20114;SDS011;10218;42.874;25.320;2022-07-29T08:33:00;3.77;;;3.30;;
20114;SDS011;10218;42.874;25.320;2022-07-29T08:35:27;4.60;;;3.57;;
20114;SDS011;10218;42.874;25.320;2022-07-29T08:37:57;8.57;;;4.30;;
20114;SDS011;10218;42.874;25.320;2022-07-29T08:40:25;3.77;;;3.47;;
20114;SDS011;10218;42.874;25.320;2022-07-29T08:42:52;5.00;;;3.70;;
20114;SDS011;10218;42.874;25.320;2022-07-29T08:45:20;4.57;;;3.90;;
20114;SDS011;10218;42.874;25.320;2022-07-29T08:47:50;4.60;;;3.20;;
20114;SDS011;10218;42.874;25.320;2022-07-29T08:50:17;3.80;;;3.20;;
20114;SDS011;10218;42.874;25.320;2022-07-29T08:52:44;3.80;;;3.37;;
20114;SDS011;10218;42.874;25.320;2022-07-29T08:55:12;8.03;;;3.90;;
20114;SDS011;10218;42.874;25.320;2022-07-29T08:57:43;3.60;;;3.30;;
20114;SDS011;10218;42.874;25.320;2022-07-29T09:00:12;3.90;;;3.30;;
20114;SDS011;10218;42.874;25.320;2022-07-29T09:02:40;4.23;;;3.80;;
20114;SDS011;10218;42.874;25.320;2022-07-29T09:05:11;3.97;;;3.57;;
20114;SDS011;10218;42.874;25.320;2022-07-29T09:07:39;6.27;;;3.63;;
20114;SDS011;10218;42.874;25.320;2022-07-29T09:10:08;5.43;;;3.53;;
20114;SDS011;10218;42.874;25.320;2022-07-29T09:12:36;3.60;;;3.30;;
20114;SDS011;10218;42.874;25.320;2022-07-29T09:15:04;3.53;;;3.23;;
20114;SDS011;10218;42.874;25.320;2022-07-29T09:17:44;3.58;;;3.05;;
20114;SDS011;10218;42.874;25.320;2022-07-29T09:20:14;5.00;;;3.33;;
20114;SDS011;10218;42.874;25.320;2022-07-29T09:22:43;3.10;;;2.80;;
20114;SDS011;10218;42.874;25.320;2022-07-29T09:25:32;4.75;;;3.15;;
20114;SDS011;10218;42.874;25.320;2022-07-29T09:28:09;6.05;;;3.47;;
20114;SDS011;10218;42.874;25.320;2022-07-29T09:30:54;5.12;;;3.28;;
20114;SDS011;10218;42.874;25.320;2022-07-29T09:33:23;6.07;;;3.50;;
20114;SDS011;10218;42.874;25.320;2022-07-29T09:38:31;3.35;;;2.85;;
20114;SDS011;10218;42.874;25.320;2022-07-29T09:41:00;4.37;;;3.30;;
20114;SDS011;10218;42.874;25.320;2022-07-29T09:43:29;3.90;;;3.50;;
20114;SDS011;10218;42.874;25.320;2022-07-29T09:45:59;4.07;;;3.67;;
20114;SDS011;10218;42.874;25.320;2022-07-29T09:48:37;4.20;;;3.80;;
20114;SDS011;10218;42.874;25.320;2022-07-29T09:51:04;3.65;;;3.35;;
20114;SDS011;10218;42.874;25.320;2022-07-29T09:53:36;7.45;;;3.62;;
20114;SDS011;10218;42.874;25.320;2022-07-29T09:56:04;5.47;;;3.70;;
20114;SDS011;10218;42.874;25.320;2022-07-29T09:58:32;4.43;;;4.00;;
20114;SDS011;10218;42.874;25.320;2022-07-29T10:01:02;5.87;;;4.00;;
20114;SDS011;10218;42.874;25.320;2022-07-29T10:03:30;4.03;;;3.62;;
20114;SDS011;10218;42.874;25.320;2022-07-29T10:06:04;4.45;;;3.78;;
20114;SDS011;10218;42.874;25.320;2022-07-29T10:08:33;4.78;;;3.50;;
20114;SDS011;10218;42.874;25.320;2022-07-29T10:11:13;4.00;;;3.70;;
20114;SDS011;10218;42.874;25.320;2022-07-29T10:13:43;4.20;;;3.62;;
20114;SDS011;10218;42.874;25.320;2022-07-29T10:16:12;6.25;;;4.03;;
20114;SDS011;10218;42.874;25.320;2022-07-29T10:18:43;3.90;;;3.50;;
20114;SDS011;10218;42.874;25.320;2022-07-29T10:21:12;4.68;;;4.15;;
20114;SDS011;10218;42.874;25.320;2022-07-29T10:23:40;5.87;;;3.80;;
20114;SDS011;10218;42.874;25.320;2022-07-29T10:26:09;5.75;;;3.90;;
20114;SDS011;10218;42.874;25.320;2022-07-29T10:28:37;6.93;;;4.32;;
20114;SDS011;10218;42.874;25.320;2022-07-29T10:31:05;4.82;;;4.35;;
20114;SDS011;10218;42.874;25.320;2022-07-29T10:36:45;4.05;;;3.60;;
20114;SDS011;10218;42.874;25.320;2022-07-29T10:41:55;6.47;;;3.85;;
20114;SDS011;10218;42.874;25.320;2022-07-29T10:44:33;4.68;;;4.28;;
20114;SDS011;10218;42.874;25.320;2022-07-29T10:47:01;5.22;;;3.95;;
20114;SDS011;10218;42.874;25.320;2022-07-29T10:49:28;5.68;;;3.87;;
20114;SDS011;10218;42.874;25.320;2022-07-29T11:05:03;4.28;;;3.87;;
20114;SDS011;10218;42.874;25.320;2022-07-29T11:07:33;5.57;;;3.65;;
20114;SDS011;10218;42.874;25.320;2022-07-29T11:15:08;4.62;;;4.05;;
20114;SDS011;10218;42.874;25.320;2022-07-29T11:20:43;4.43;;;3.92;;
20114;SDS011;10218;42.874;25.320;2022-07-29T11:23:29;4.85;;;3.92;;
20114;SDS011;10218;42.874;25.320;2022-07-29T11:26:31;4.28;;;3.87;;
20114;SDS011;10218;42.874;25.320;2022-07-29T11:28:54;5.10;;;3.92;;
20114;SDS011;10218;42.874;25.320;2022-07-29T11:31:42;4.95;;;3.83;;
20114;SDS011;10218;42.874;25.320;2022-07-29T11:34:18;5.68;;;3.75;;
20114;SDS011;10218;42.874;25.320;2022-07-29T11:37:13;4.30;;;3.90;;
20114;SDS011;10218;42.874;25.320;2022-07-29T11:39:43;10.73;;;3.95;;
20114;SDS011;10218;42.874;25.320;2022-07-29T11:42:58;4.95;;;4.05;;
20114;SDS011;10218;42.874;25.320;2022-07-29T11:45:05;4.15;;;3.70;;
20114;SDS011;10218;42.874;25.320;2022-07-29T11:47:47;5.35;;;4.18;;
20114;SDS011;10218;42.874;25.320;2022-07-29T11:50:31;4.32;;;3.72;;
20114;SDS011;10218;42.874;25.320;2022-07-29T11:53:02;5.57;;;3.53;;
20114;SDS011;10218;42.874;25.320;2022-07-29T11:55:37;3.97;;;3.58;;
20114;SDS011;10218;42.874;25.320;2022-07-29T11:58:06;4.85;;;3.80;;
20114;SDS011;10218;42.874;25.320;2022-07-29T12:00:35;5.43;;;3.90;;
20114;SDS011;10218;42.874;25.320;2022-07-29T12:03:04;4.75;;;3.85;;
20114;SDS011;10218;42.874;25.320;2022-07-29T12:05:37;4.07;;;3.67;;
20114;SDS011;10218;42.874;25.320;2022-07-29T12:08:18;5.75;;;3.90;;
20114;SDS011;10218;42.874;25.320;2022-07-29T12:10:48;4.95;;;3.90;;
20114;SDS011;10218;42.874;25.320;2022-07-29T12:13:18;4.35;;;3.53;;
20114;SDS011;10218;42.874;25.320;2022-07-29T12:15:54;8.30;;;3.90;;
20114;SDS011;10218;42.874;25.320;2022-07-29T12:18:24;6.30;;;3.90;;
20114;SDS011;10218;42.874;25.320;2022-07-29T12:20:58;4.60;;;3.83;;
20114;SDS011;10218;42.874;25.320;2022-07-29T12:23:30;5.80;;;4.10;;
20114;SDS011;10218;42.874;25.320;2022-07-29T12:25:58;5.15;;;3.87;;
20114;SDS011;10218;42.874;25.320;2022-07-29T12:28:26;5.57;;;4.12;;
20114;SDS011;10218;42.874;25.320;2022-07-29T12:30:54;6.30;;;4.10;;
20114;SDS011;10218;42.874;25.320;2022-07-29T12:33:22;6.95;;;3.70;;
20114;SDS011;10218;42.874;25.320;2022-07-29T12:35:50;8.82;;;3.95;;
20114;SDS011;10218;42.874;25.320;2022-07-29T12:38:29;5.90;;;4.05;;
20114;SDS011;10218;42.874;25.320;2022-07-29T12:40:57;5.87;;;3.83;;
20114;SDS011;10218;42.874;25.320;2022-07-29T12:43:24;5.40;;;3.75;;
20114;SDS011;10218;42.874;25.320;2022-07-29T12:45:53;5.60;;;3.87;;
20114;SDS011;10218;42.874;25.320;2022-07-29T12:48:37;5.70;;;3.85;;
20114;SDS011;10218;42.874;25.320;2022-07-29T12:51:06;4.10;;;3.65;;
20114;SDS011;10218;42.874;25.320;2022-07-29T12:53:35;4.40;;;3.80;;
20114;SDS011;10218;42.874;25.320;2022-07-29T12:56:04;4.85;;;4.20;;
20114;SDS011;10218;42.874;25.320;2022-07-29T12:58:38;4.95;;;3.80;;
20114;SDS011;10218;42.874;25.320;2022-07-29T13:01:13;4.25;;;3.83;;
20114;SDS011;10218;42.874;25.320;2022-07-29T13:09:13;4.35;;;3.75;;
20114;SDS011;10218;42.874;25.320;2022-07-29T13:11:52;6.85;;;4.15;;
20114;SDS011;10218;42.874;25.320;2022-07-29T13:17:04;6.30;;;3.78;;
20114;SDS011;10218;42.874;25.320;2022-07-29T13:19:51;5.37;;;3.92;;
20114;SDS011;10218;42.874;25.320;2022-07-29T13:22:20;6.97;;;4.07;;
20114;SDS011;10218;42.874;25.320;2022-07-29T13:24:56;4.97;;;3.92;;
20114;SDS011;10218;42.874;25.320;2022-07-29T13:27:26;4.35;;;3.87;;
20114;SDS011;10218;42.874;25.320;2022-07-29T13:29:55;7.65;;;4.03;;
20114;SDS011;10218;42.874;25.320;2022-07-29T13:32:25;3.85;;;3.55;;
20114;SDS011;10218;42.874;25.320;2022-07-29T13:34:54;4.55;;;4.15;;
20114;SDS011;10218;42.874;25.320;2022-07-29T13:37:23;4.43;;;3.67;;
20114;SDS011;10218;42.874;25.320;2022-07-29T13:39:50;3.92;;;3.62;;
20114;SDS011;10218;42.874;25.320;2022-07-29T13:42:19;5.22;;;3.95;;
20114;SDS011;10218;42.874;25.320;2022-07-29T13:44:46;5.45;;;3.72;;
20114;SDS011;10218;42.874;25.320;2022-07-29T13:47:15;7.57;;;3.70;;
20114;SDS011;10218;42.874;25.320;2022-07-29T13:49:42;4.12;;;3.72;;
20114;SDS011;10218;42.874;25.320;2022-07-29T13:52:10;5.10;;;3.90;;
20114;SDS011;10218;42.874;25.320;2022-07-29T13:54:37;4.18;;;3.78;;
20114;SDS011;10218;42.874;25.320;2022-07-29T13:57:08;4.40;;;4.00;;
20114;SDS011;10218;42.874;25.320;2022-07-29T13:59:38;5.95;;;4.30;;
20114;SDS011;10218;42.874;25.320;2022-07-29T14:02:06;4.85;;;4.18;;
20114;SDS011;10218;42.874;25.320;2022-07-29T14:04:34;7.05;;;4.18;;
20114;SDS011;10218;42.874;25.320;2022-07-29T14:07:02;9.30;;;4.50;;
20114;SDS011;10218;42.874;25.320;2022-07-29T14:09:29;4.00;;;3.70;;
20114;SDS011;10218;42.874;25.320;2022-07-29T14:11:58;6.60;;;3.78;;
20114;SDS011;10218;42.874;25.320;2022-07-29T14:14:25;4.60;;;4.20;;
20114;SDS011;10218;42.874;25.320;2022-07-29T14:16:52;4.60;;;4.10;;
20114;SDS011;10218;42.874;25.320;2022-07-29T14:19:19;5.45;;;3.72;;
20114;SDS011;10218;42.874;25.320;2022-07-29T14:21:47;4.57;;;3.90;;
20114;SDS011;10218;42.874;25.320;2022-07-29T14:24:13;4.78;;;4.10;;
20114;SDS011;10218;42.874;25.320;2022-07-29T14:26:41;5.00;;;4.00;;
20114;SDS011;10218;42.874;25.320;2022-07-29T14:29:08;4.87;;;4.10;;
20114;SDS011;10218;42.874;25.320;2022-07-29T14:31:35;5.53;;;4.05;;
20114;SDS011;10218;42.874;25.320;2022-07-29T14:34:02;7.75;;;4.07;;
20114;SDS011;10218;42.874;25.320;2022-07-29T14:36:29;4.30;;;3.72;;
20114;SDS011;10218;42.874;25.320;2022-07-29T14:38:56;5.37;;;3.90;;
20114;SDS011;10218;42.874;25.320;2022-07-29T14:41:24;4.55;;;4.05;;
20114;SDS011;10218;42.874;25.320;2022-07-29T14:43:54;4.28;;;3.87;;
20114;SDS011;10218;42.874;25.320;2022-07-29T14:46:21;4.25;;;3.85;;
20114;SDS011;10218;42.874;25.320;2022-07-29T14:48:49;5.43;;;3.72;;
20114;SDS011;10218;42.874;25.320;2022-07-29T14:51:16;8.48;;;4.10;;
20114;SDS011;10218;42.874;25.320;2022-07-29T14:53:43;4.20;;;3.80;;
20114;SDS011;10218;42.874;25.320;2022-07-29T14:56:11;4.97;;;4.30;;
20114;SDS011;10218;42.874;25.320;2022-07-29T14:58:58;6.05;;;4.37;;
20114;SDS011;10218;42.874;25.320;2022-07-29T15:01:25;4.32;;;3.90;;
20114;SDS011;10218;42.874;25.320;2022-07-29T15:03:53;4.68;;;3.80;;
20114;SDS011;10218;42.874;25.320;2022-07-29T15:06:23;5.18;;;4.32;;
20114;SDS011;10218;42.874;25.320;2022-07-29T15:08:50;4.18;;;3.78;;
20114;SDS011;10218;42.874;25.320;2022-07-29T15:11:17;4.97;;;3.85;;
20114;SDS011;10218;42.874;25.320;2022-07-29T15:13:44;4.50;;;3.80;;
20114;SDS011;10218;42.874;25.320;2022-07-29T15:16:12;6.62;;;3.95;;
20114;SDS011;10218;42.874;25.320;2022-07-29T15:18:39;5.25;;;3.80;;
20114;SDS011;10218;42.874;25.320;2022-07-29T15:21:06;4.15;;;3.75;;
20114;SDS011;10218;42.874;25.320;2022-07-29T15:23:34;4.50;;;4.10;;
20114;SDS011;10218;42.874;25.320;2022-07-29T15:26:03;4.55;;;4.10;;
20114;SDS011;10218;42.874;25.320;2022-07-29T15:28:31;6.25;;;3.47;;
20114;SDS011;10218;42.874;25.320;2022-07-29T15:30:58;4.55;;;4.00;;
20114;SDS011;10218;42.874;25.320;2022-07-29T15:33:25;4.57;;;3.65;;
20114;SDS011;10218;42.874;25.320;2022-07-29T15:35:53;4.82;;;3.83;;
20114;SDS011;10218;42.874;25.320;2022-07-29T15:38:22;5.85;;;4.50;;